sensor_id;sensor_type;location;lat;lon;timestamp;pressure;altitude;pressure_sealevel;temperature;humidity
7022;BME280;3552;42.664;23.406;2022-09-21T00:01:43;49666.84;;;-141.28;100.00
7022;BME280;3552;42.664;23.406;2022-09-21T00:04:11;49643.31;;;-141.28;100.00
7022;BME280;3552;42.664;23.406;2022-09-21T00:06:38;49651.16;;;-141.28;100.00
7022;BME280;3552;42.664;23.406;2022-09-21T00:09:05;49629.56;;;-141.28;100.00
7022;BME280;3552;42.664;23.406;2022-09-21T00:11:34;49580.50;;;-141.28;100.00
7022;BME280;3552;42.664;23.406;2022-09-21T00:14:04;49545.19;;;-141.28;100.00
7022;BME280;3552;42.664;23.406;2022-09-21T00:16:32;49525.56;;;-141.28;100.00
7022;BME280;3552;42.664;23.406;2022-09-21T00:19:03;49488.28;;;-141.28;100.00
7022;BME280;3552;42.664;23.406;2022-09-21T00:21:31;49451.00;;;-141.28;100.00
7022;BME280;3552;42.664;23.406;2022-09-21T00:23:58;49456.88;;;-141.28;100.00
7022;BME280;3552;42.664;23.406;2022-09-21T00:26:27;49407.84;;;-141.28;100.00
7022;BME280;3552;42.664;23.406;2022-09-21T00:28:56;49415.69;;;-141.28;100.00
7022;BME280;3552;42.664;23.406;2022-09-21T00:31:24;49403.91;;;-141.28;100.00
7022;BME280;3552;42.664;23.406;2022-09-21T00:33:51;49399.97;;;-141.28;100.00
7022;BME280;3552;42.664;23.406;2022-09-21T00:36:21;49396.06;;;-141.28;100.00
7022;BME280;3552;42.664;23.406;2022-09-21T00:38:50;49376.44;;;-141.28;100.00
7022;BME280;3552;42.664;23.406;2022-09-21T00:41:17;49376.44;;;-141.28;100.00
7022;BME280;3552;42.664;23.406;2022-09-21T00:43:47;49356.81;;;-141.28;100.00
7022;BME280;3552;42.664;23.406;2022-09-21T00:46:18;49364.66;;;-141.28;100.00
7022;BME280;3552;42.664;23.406;2022-09-21T00:48:48;49364.66;;;-141.28;100.00
7022;BME280;3552;42.664;23.406;2022-09-21T00:51:15;49301.88;;;-141.28;100.00
7022;BME280;3552;42.664;23.406;2022-09-21T00:53:44;49294.03;;;-141.28;100.00
7022;BME280;3552;42.664;23.406;2022-09-21T00:56:14;49297.94;;;-141.28;100.00
7022;BME280;3552;42.664;23.406;2022-09-21T00:58:45;49305.78;;;-141.28;100.00
7022;BME280;3552;42.664;23.406;2022-09-21T01:01:15;49274.41;;;-141.28;100.00
7022;BME280;3552;42.664;23.406;2022-09-21T01:03:44;49309.72;;;-141.28;100.00
7022;BME280;3552;42.664;23.406;2022-09-21T01:06:13;49290.09;;;-141.28;100.00
7022;BME280;3552;42.664;23.406;2022-09-21T01:08:44;49262.63;;;-141.28;100.00
7022;BME280;3552;42.664;23.406;2022-09-21T01:11:28;49294.03;;;-141.28;100.00
7022;BME280;3552;42.664;23.406;2022-09-21T01:14:12;49286.16;;;-141.28;100.00
7022;BME280;3552;42.664;23.406;2022-09-21T01:16:49;49280.28;;;-141.28;100.00
7022;BME280;3552;42.664;23.406;2022-09-21T01:19:29;49235.16;;;-141.28;100.00
7022;BME280;3552;42.664;23.406;2022-09-21T01:22:05;49243.00;;;-141.28;100.00
7022;BME280;3552;42.664;23.406;2022-09-21T01:24:48;49241.03;;;-141.28;100.00
7022;BME280;3552;42.664;23.406;2022-09-21T01:27:34;49211.59;;;-141.28;100.00
7022;BME280;3552;42.664;23.406;2022-09-21T01:30:08;49176.28;;;-141.28;100.00
7022;BME280;3552;42.664;23.406;2022-09-21T01:32:41;49162.56;;;-141.28;100.00
7022;BME280;3552;42.664;23.406;2022-09-21T01:35:12;49148.81;;;-141.28;100.00
7022;BME280;3552;42.664;23.406;2022-09-21T01:37:43;49127.25;;;-141.28;100.00
7022;BME280;3552;42.664;23.406;2022-09-21T01:40:15;49137.06;;;-141.28;100.00
7022;BME280;3552;42.664;23.406;2022-09-21T01:42:44;49121.34;;;-141.28;100.00
7022;BME280;3552;42.664;23.406;2022-09-21T01:45:16;49119.38;;;-141.28;100.00
7022;BME280;3552;42.664;23.406;2022-09-21T01:47:48;49123.31;;;-141.28;100.00
7022;BME280;3552;42.664;23.406;2022-09-21T01:50:18;49133.13;;;-141.28;100.00
7022;BME280;3552;42.664;23.406;2022-09-21T01:52:49;49117.44;;;-141.28;100.00
7022;BME280;3552;42.664;23.406;2022-09-21T01:55:22;49105.66;;;-141.28;100.00
7022;BME280;3552;42.664;23.406;2022-09-21T01:57:58;49127.25;;;-141.28;100.00
7022;BME280;3552;42.664;23.406;2022-09-21T02:00:29;49105.66;;;-141.28;100.00
7022;BME280;3552;42.664;23.406;2022-09-21T02:03:01;49115.47;;;-141.28;100.00
7022;BME280;3552;42.664;23.406;2022-09-21T02:05:31;49089.97;;;-141.28;100.00
7022;BME280;3552;42.664;23.406;2022-09-21T02:07:59;49097.81;;;-141.28;100.00
7022;BME280;3552;42.664;23.406;2022-09-21T02:10:30;49101.72;;;-141.28;100.00
7022;BME280;3552;42.664;23.406;2022-09-21T02:13:02;49107.63;;;-141.28;100.00
7022;BME280;3552;42.664;23.406;2022-09-21T02:15:43;49129.19;;;-141.28;100.00
7022;BME280;3552;42.664;23.406;2022-09-21T02:18:20;49129.19;;;-141.28;100.00
7022;BME280;3552;42.664;23.406;2022-09-21T02:20:55;49140.97;;;-141.28;100.00
7022;BME280;3552;42.664;23.406;2022-09-21T02:23:26;49117.44;;;-141.28;100.00
7022;BME280;3552;42.664;23.406;2022-09-21T02:26:05;49121.34;;;-141.28;100.00
7022;BME280;3552;42.664;23.406;2022-09-21T02:28:42;49117.44;;;-141.28;100.00
7022;BME280;3552;42.664;23.406;2022-09-21T02:31:29;49105.66;;;-141.28;100.00
7022;BME280;3552;42.664;23.406;2022-09-21T02:34:00;49133.13;;;-141.28;100.00
7022;BME280;3552;42.664;23.406;2022-09-21T02:36:32;49101.72;;;-141.28;100.00
7022;BME280;3552;42.664;23.406;2022-09-21T02:39:06;49086.03;;;-141.28;100.00
7022;BME280;3552;42.664;23.406;2022-09-21T02:41:42;49089.97;;;-141.28;100.00
7022;BME280;3552;42.664;23.406;2022-09-21T02:44:16;49103.69;;;-141.28;100.00
7022;BME280;3552;42.664;23.406;2022-09-21T02:46:49;49097.81;;;-141.28;100.00
7022;BME280;3552;42.664;23.406;2022-09-21T02:49:22;49113.50;;;-141.28;100.00
7022;BME280;3552;42.664;23.406;2022-09-21T02:51:55;49117.44;;;-141.28;100.00
7022;BME280;3552;42.664;23.406;2022-09-21T02:54:27;49133.13;;;-141.28;100.00
7022;BME280;3552;42.664;23.406;2022-09-21T02:56:56;49129.19;;;-141.28;100.00
7022;BME280;3552;42.664;23.406;2022-09-21T02:59:24;49139.00;;;-141.28;100.00
7022;BME280;3552;42.664;23.406;2022-09-21T03:02:13;49144.91;;;-141.28;100.00
7022;BME280;3552;42.664;23.406;2022-09-21T03:04:58;49164.53;;;-141.28;100.00
7022;BME280;3552;42.664;23.406;2022-09-21T03:07:26;49117.44;;;-141.28;100.00
7022;BME280;3552;42.664;23.406;2022-09-21T03:09:53;49140.97;;;-141.28;100.00
7022;BME280;3552;42.664;23.406;2022-09-21T03:12:20;49152.75;;;-141.28;100.00
7022;BME280;3552;42.664;23.406;2022-09-21T03:14:47;49160.59;;;-141.28;100.00
7022;BME280;3552;42.664;23.406;2022-09-21T03:17:17;49176.28;;;-141.28;100.00
7022;BME280;3552;42.664;23.406;2022-09-21T03:19:44;49156.66;;;-141.28;100.00
7022;BME280;3552;42.664;23.406;2022-09-21T03:22:11;49186.09;;;-141.28;100.00
7022;BME280;3552;42.664;23.406;2022-09-21T03:24:38;49184.13;;;-141.28;100.00
7022;BME280;3552;42.664;23.406;2022-09-21T03:27:15;49203.75;;;-141.28;100.00
7022;BME280;3552;42.664;23.406;2022-09-21T03:29:43;49219.47;;;-141.28;100.00
7022;BME280;3552;42.664;23.406;2022-09-21T03:32:10;49199.84;;;-141.28;100.00
7022;BME280;3552;42.664;23.406;2022-09-21T03:34:39;49211.59;;;-141.28;100.00
7022;BME280;3552;42.664;23.406;2022-09-21T03:37:09;49227.31;;;-141.28;100.00
7022;BME280;3552;42.664;23.406;2022-09-21T03:39:36;49241.03;;;-141.28;100.00
7022;BME280;3552;42.664;23.406;2022-09-21T03:42:03;49243.00;;;-141.28;100.00
7022;BME280;3552;42.664;23.406;2022-09-21T03:44:31;49241.03;;;-141.28;100.00
7022;BME280;3552;42.664;23.406;2022-09-21T03:46:57;49246.94;;;-141.28;100.00
7022;BME280;3552;42.664;23.406;2022-09-21T03:49:24;49270.47;;;-141.28;100.00
7022;BME280;3552;42.664;23.406;2022-09-21T03:51:53;49266.56;;;-141.28;100.00
7022;BME280;3552;42.664;23.406;2022-09-21T03:54:20;49282.25;;;-141.28;100.00
7022;BME280;3552;42.664;23.406;2022-09-21T03:56:47;49294.03;;;-141.28;100.00
7022;BME280;3552;42.664;23.406;2022-09-21T03:59:14;49325.41;;;-141.28;100.00
7022;BME280;3552;42.664;23.406;2022-09-21T04:01:42;49325.41;;;-141.28;100.00
7022;BME280;3552;42.664;23.406;2022-09-21T04:04:09;49329.34;;;-141.28;100.00
7022;BME280;3552;42.664;23.406;2022-09-21T04:06:36;49352.88;;;-141.28;100.00
7022;BME280;3552;42.664;23.406;2022-09-21T04:09:05;49360.75;;;-141.28;100.00
7022;BME280;3552;42.664;23.406;2022-09-21T04:11:32;49394.09;;;-141.28;100.00
7022;BME280;3552;42.664;23.406;2022-09-21T04:14:00;49388.22;;;-141.28;100.00
7022;BME280;3552;42.664;23.406;2022-09-21T04:16:28;49405.88;;;-141.28;100.00
7022;BME280;3552;42.664;23.406;2022-09-21T04:18:55;49451.00;;;-141.28;100.00
7022;BME280;3552;42.664;23.406;2022-09-21T04:21:23;49437.25;;;-141.28;100.00
7022;BME280;3552;42.664;23.406;2022-09-21T04:23:50;49451.00;;;-141.28;100.00
7022;BME280;3552;42.664;23.406;2022-09-21T04:26:22;49470.63;;;-141.28;100.00
7022;BME280;3552;42.664;23.406;2022-09-21T04:28:50;49474.53;;;-141.28;100.00
7022;BME280;3552;42.664;23.406;2022-09-21T04:31:18;49458.84;;;-141.28;100.00
7022;BME280;3552;42.664;23.406;2022-09-21T04:33:47;49486.31;;;-141.28;100.00
7022;BME280;3552;42.664;23.406;2022-09-21T04:36:15;49502.03;;;-141.28;100.00
7022;BME280;3552;42.664;23.406;2022-09-21T04:38:43;49509.88;;;-141.28;100.00
7022;BME280;3552;42.664;23.406;2022-09-21T04:41:12;49509.88;;;-141.28;100.00
7022;BME280;3552;42.664;23.406;2022-09-21T04:43:42;49513.78;;;-141.28;100.00
7022;BME280;3552;42.664;23.406;2022-09-21T04:46:10;49509.88;;;-141.28;100.00
7022;BME280;3552;42.664;23.406;2022-09-21T04:48:37;49509.88;;;-141.28;100.00
7022;BME280;3552;42.664;23.406;2022-09-21T04:51:06;49523.59;;;-141.28;100.00
7022;BME280;3552;42.664;23.406;2022-09-21T04:53:34;49551.06;;;-141.28;100.00
7022;BME280;3552;42.664;23.406;2022-09-21T04:56:02;49545.19;;;-141.28;100.00
7022;BME280;3552;42.664;23.406;2022-09-21T04:58:30;49556.97;;;-141.28;100.00
7022;BME280;3552;42.664;23.406;2022-09-21T05:00:58;49553.03;;;-141.28;100.00
7022;BME280;3552;42.664;23.406;2022-09-21T05:03:27;49576.59;;;-141.28;100.00
7022;BME280;3552;42.664;23.406;2022-09-21T05:05:55;49607.97;;;-141.28;100.00
7022;BME280;3552;42.664;23.406;2022-09-21T05:08:25;49607.97;;;-141.28;100.00
7022;BME280;3552;42.664;23.406;2022-09-21T05:11:07;49619.75;;;-141.28;100.00
7022;BME280;3552;42.664;23.406;2022-09-21T05:13:34;49584.44;;;-141.28;100.00
7022;BME280;3552;42.664;23.406;2022-09-21T05:16:03;49584.44;;;-141.28;100.00
7022;BME280;3552;42.664;23.406;2022-09-21T05:18:30;49588.34;;;-141.28;100.00
7022;BME280;3552;42.664;23.406;2022-09-21T05:20:59;49602.09;;;-141.28;100.00
7022;BME280;3552;42.664;23.406;2022-09-21T05:23:27;49588.34;;;-141.28;100.00
7022;BME280;3552;42.664;23.406;2022-09-21T05:25:55;49611.91;;;-141.28;100.00
7022;BME280;3552;42.664;23.406;2022-09-21T05:28:23;49604.06;;;-141.28;100.00
7022;BME280;3552;42.664;23.406;2022-09-21T05:30:56;49641.34;;;-141.28;100.00
7022;BME280;3552;42.664;23.406;2022-09-21T05:33:27;49653.13;;;-141.28;100.00
7022;BME280;3552;42.664;23.406;2022-09-21T05:36:01;49666.84;;;-141.28;100.00
7022;BME280;3552;42.664;23.406;2022-09-21T05:38:31;49688.44;;;-141.28;100.00
7022;BME280;3552;42.664;23.406;2022-09-21T05:41:00;49698.25;;;-141.28;100.00
7022;BME280;3552;42.664;23.406;2022-09-21T05:43:28;49743.38;;;-141.28;100.00
7022;BME280;3552;42.664;23.406;2022-09-21T05:46:00;49780.69;;;-141.28;100.00
7022;BME280;3552;42.664;23.406;2022-09-21T05:48:34;49784.59;;;-141.28;100.00
7022;BME280;3552;42.664;23.406;2022-09-21T05:51:05;49855.25;;;-141.28;100.00
7022;BME280;3552;42.664;23.406;2022-09-21T05:53:47;49896.47;;;-141.28;100.00
7022;BME280;3552;42.664;23.406;2022-09-21T05:56:27;49910.19;;;-141.28;100.00
7022;BME280;3552;42.664;23.406;2022-09-21T05:59:00;49961.22;;;-141.28;100.00
7022;BME280;3552;42.664;23.406;2022-09-21T06:01:41;50008.34;;;-141.28;100.00
7022;BME280;3552;42.664;23.406;2022-09-21T06:04:13;50078.97;;;-141.28;100.00
7022;BME280;3552;42.664;23.406;2022-09-21T06:06:40;50106.47;;;-141.28;100.00
7022;BME280;3552;42.664;23.406;2022-09-21T06:09:07;50116.28;;;-141.28;100.00
7022;BME280;3552;42.664;23.406;2022-09-21T06:11:34;50112.34;;;-141.28;100.00
7022;BME280;3552;42.664;23.406;2022-09-21T06:14:01;50157.50;;;-141.28;100.00
7022;BME280;3552;42.664;23.406;2022-09-21T06:16:36;50245.81;;;-141.28;100.00
7022;BME280;3552;42.664;23.406;2022-09-21T06:19:03;50253.66;;;-141.28;100.00
7022;BME280;3552;42.664;23.406;2022-09-21T06:21:32;50314.50;;;-141.28;100.00
7022;BME280;3552;42.664;23.406;2022-09-21T06:23:58;50351.81;;;-141.28;100.00
7022;BME280;3552;42.664;23.406;2022-09-21T06:26:26;50410.69;;;-141.28;100.00
7022;BME280;3552;42.664;23.406;2022-09-21T06:28:54;50416.56;;;-141.28;100.00
7022;BME280;3552;42.664;23.406;2022-09-21T06:31:22;50400.88;;;-141.28;100.00
7022;BME280;3552;42.664;23.406;2022-09-21T06:33:50;50473.50;;;-141.28;100.00
7022;BME280;3552;42.664;23.406;2022-09-21T06:36:19;50544.16;;;-141.28;100.00
7022;BME280;3552;42.664;23.406;2022-09-21T06:38:47;50603.06;;;-141.28;100.00
7022;BME280;3552;42.664;23.406;2022-09-21T06:41:14;50699.22;;;-141.28;100.00
7022;BME280;3552;42.664;23.406;2022-09-21T06:43:41;50779.72;;;-141.28;100.00
7022;BME280;3552;42.664;23.406;2022-09-21T06:46:08;50828.78;;;-141.28;100.00
7022;BME280;3552;42.664;23.406;2022-09-21T06:48:35;50978.00;;;-141.28;100.00
7022;BME280;3552;42.664;23.406;2022-09-21T06:51:04;51072.22;;;-141.28;100.00
7022;BME280;3552;42.664;23.406;2022-09-21T06:53:32;51111.50;;;-141.28;100.00
7022;BME280;3552;42.664;23.406;2022-09-21T06:56:02;51233.22;;;-141.28;100.00
7022;BME280;3552;42.664;23.406;2022-09-21T06:58:30;51404.03;;;-141.28;100.00
7022;BME280;3552;42.664;23.406;2022-09-21T07:01:04;51417.78;;;-141.28;100.00
7022;BME280;3552;42.664;23.406;2022-09-21T07:03:32;51339.22;;;-141.28;100.00
7022;BME280;3552;42.664;23.406;2022-09-21T07:06:00;51358.88;;;-141.28;100.00
7022;BME280;3552;42.664;23.406;2022-09-21T07:08:29;51368.69;;;-141.28;100.00
7022;BME280;3552;42.664;23.406;2022-09-21T07:10:57;51237.13;;;-141.28;100.00
7022;BME280;3552;42.664;23.406;2022-09-21T07:13:26;51127.19;;;-141.28;100.00
7022;BME280;3552;42.664;23.406;2022-09-21T07:15:53;51003.50;;;-141.28;100.00
7022;BME280;3552;42.664;23.406;2022-09-21T07:18:21;50985.84;;;-141.28;100.00
7022;BME280;3552;42.664;23.406;2022-09-21T07:20:48;50999.59;;;-141.28;100.00
7022;BME280;3552;42.664;23.406;2022-09-21T07:23:16;50976.03;;;-141.28;100.00
7022;BME280;3552;42.664;23.406;2022-09-21T07:25:45;50974.06;;;-141.28;100.00
7022;BME280;3552;42.664;23.406;2022-09-21T07:28:13;50954.44;;;-141.28;100.00
7022;BME280;3552;42.664;23.406;2022-09-21T07:30:42;50948.53;;;-141.28;100.00
7022;BME280;3552;42.664;23.406;2022-09-21T07:33:09;50919.09;;;-141.28;100.00
7022;BME280;3552;42.664;23.406;2022-09-21T07:35:36;50911.25;;;-141.28;100.00
7022;BME280;3552;42.664;23.406;2022-09-21T07:38:05;50905.34;;;-141.28;100.00
7022;BME280;3552;42.664;23.406;2022-09-21T07:40:33;50856.28;;;-141.28;100.00
7022;BME280;3552;42.664;23.406;2022-09-21T07:43:01;50915.16;;;-141.28;100.00
7022;BME280;3552;42.664;23.406;2022-09-21T07:45:28;50979.97;;;-141.28;100.00
7022;BME280;3552;42.664;23.406;2022-09-21T07:48:01;51115.41;;;-141.28;100.00
7022;BME280;3552;42.664;23.406;2022-09-21T07:50:28;51174.31;;;-141.28;100.00
7022;BME280;3552;42.664;23.406;2022-09-21T07:52:58;51111.50;;;-141.28;100.00
7022;BME280;3552;42.664;23.406;2022-09-21T07:55:26;51064.38;;;-141.28;100.00
7022;BME280;3552;42.664;23.406;2022-09-21T07:57:54;51031.00;;;-141.28;100.00
7022;BME280;3552;42.664;23.406;2022-09-21T08:00:39;51032.97;;;-141.28;100.00
7022;BME280;3552;42.664;23.406;2022-09-21T08:03:08;50974.06;;;-141.28;100.00
7022;BME280;3552;42.664;23.406;2022-09-21T08:05:36;50966.22;;;-141.28;100.00
7022;BME280;3552;42.664;23.406;2022-09-21T08:08:05;50891.63;;;-141.28;100.00
7022;BME280;3552;42.664;23.406;2022-09-21T08:10:33;50860.19;;;-141.28;100.00
7022;BME280;3552;42.664;23.406;2022-09-21T08:13:02;50781.69;;;-141.28;100.00
7022;BME280;3552;42.664;23.406;2022-09-21T08:15:29;50714.94;;;-141.28;100.00
7022;BME280;3552;42.664;23.406;2022-09-21T08:17:57;50632.50;;;-141.28;100.00
7022;BME280;3552;42.664;23.406;2022-09-21T08:20:27;50552.00;;;-141.28;100.00
7022;BME280;3552;42.664;23.406;2022-09-21T08:22:55;50526.50;;;-141.28;100.00
7022;BME280;3552;42.664;23.406;2022-09-21T08:25:22;50389.09;;;-141.28;100.00
7022;BME280;3552;42.664;23.406;2022-09-21T08:27:49;50393.03;;;-141.28;100.00
7022;BME280;3552;42.664;23.406;2022-09-21T08:30:17;50440.13;;;-141.28;100.00
7022;BME280;3552;42.664;23.406;2022-09-21T08:32:43;50396.94;;;-141.28;100.00
7022;BME280;3552;42.664;23.406;2022-09-21T08:35:10;50322.34;;;-141.28;100.00
7022;BME280;3552;42.664;23.406;2022-09-21T08:37:39;50220.28;;;-141.28;100.00
7022;BME280;3552;42.664;23.406;2022-09-21T08:40:06;50184.97;;;-141.28;100.00
7022;BME280;3552;42.664;23.406;2022-09-21T08:42:39;50179.09;;;-141.28;100.00
7022;BME280;3552;42.664;23.406;2022-09-21T08:45:18;50090.75;;;-141.28;100.00
7022;BME280;3552;42.664;23.406;2022-09-21T08:47:49;50043.66;;;-141.28;100.00
7022;BME280;3552;42.664;23.406;2022-09-21T08:50:40;49984.78;;;-141.28;100.00
7022;BME280;3552;42.664;23.406;2022-09-21T08:53:18;49908.25;;;-141.28;100.00
7022;BME280;3552;42.664;23.406;2022-09-21T08:55:47;50261.50;;;-141.28;100.00
7022;BME280;3552;42.664;23.406;2022-09-21T08:58:21;50416.56;;;-141.28;100.00
7022;BME280;3552;42.664;23.406;2022-09-21T09:01:03;50432.28;;;-141.28;100.00
7022;BME280;3552;42.664;23.406;2022-09-21T09:03:44;50444.06;;;-141.28;100.00
7022;BME280;3552;42.664;23.406;2022-09-21T09:06:23;50442.09;;;-141.28;100.00
7022;BME280;3552;42.664;23.406;2022-09-21T09:09:13;50463.69;;;-141.28;100.00
7022;BME280;3552;42.664;23.406;2022-09-21T09:11:59;50340.03;;;-141.28;100.00
7022;BME280;3552;42.664;23.406;2022-09-21T09:14:44;50302.72;;;-141.28;100.00
7022;BME280;3552;42.664;23.406;2022-09-21T09:17:28;50290.97;;;-141.28;100.00
7022;BME280;3552;42.664;23.406;2022-09-21T09:20:02;50290.97;;;-141.28;100.00
7022;BME280;3552;42.664;23.406;2022-09-21T09:22:35;50236.00;;;-141.28;100.00
7022;BME280;3552;42.664;23.406;2022-09-21T09:25:15;50228.16;;;-141.28;100.00
7022;BME280;3552;42.664;23.406;2022-09-21T09:27:46;50188.91;;;-141.28;100.00
7022;BME280;3552;42.664;23.406;2022-09-21T09:30:16;50082.91;;;-141.28;100.00
7022;BME280;3552;42.664;23.406;2022-09-21T09:32:51;50037.78;;;-141.28;100.00
7022;BME280;3552;42.664;23.406;2022-09-21T09:35:25;49902.34;;;-141.28;100.00
7022;BME280;3552;42.664;23.406;2022-09-21T09:37:56;49902.34;;;-141.28;100.00
7022;BME280;3552;42.664;23.406;2022-09-21T09:40:47;49933.75;;;-141.28;100.00
7022;BME280;3552;42.664;23.406;2022-09-21T09:43:26;49863.09;;;-141.28;100.00
7022;BME280;3552;42.664;23.406;2022-09-21T09:46:03;49823.84;;;-141.28;100.00
7022;BME280;3552;42.664;23.406;2022-09-21T09:48:47;49753.19;;;-141.28;100.00
7022;BME280;3552;42.664;23.406;2022-09-21T09:51:16;49749.28;;;-141.28;100.00
7022;BME280;3552;42.664;23.406;2022-09-21T09:53:43;49737.50;;;-141.28;100.00
7022;BME280;3552;42.664;23.406;2022-09-21T09:56:13;49657.03;;;-141.28;100.00
7022;BME280;3552;42.664;23.406;2022-09-21T09:58:44;49666.84;;;-141.28;100.00
7022;BME280;3552;42.664;23.406;2022-09-21T10:01:35;49635.47;;;-141.28;100.00
7022;BME280;3552;42.664;23.406;2022-09-21T10:04:06;49545.19;;;-141.28;100.00
7022;BME280;3552;42.664;23.406;2022-09-21T10:06:33;49643.31;;;-141.28;100.00
7022;BME280;3552;42.664;23.406;2022-09-21T10:09:00;49507.91;;;-141.28;100.00
7022;BME280;3552;42.664;23.406;2022-09-21T10:11:45;49399.97;;;-141.28;100.00
7022;BME280;3552;42.664;23.406;2022-09-21T10:14:18;49384.28;;;-141.28;100.00
7022;BME280;3552;42.664;23.406;2022-09-21T10:16:49;49372.50;;;-141.28;100.00
7022;BME280;3552;42.664;23.406;2022-09-21T10:19:20;49429.41;;;-141.28;100.00
7022;BME280;3552;42.664;23.406;2022-09-21T10:21:54;49502.03;;;-141.28;100.00
7022;BME280;3552;42.664;23.406;2022-09-21T10:24:24;49482.41;;;-141.28;100.00
7022;BME280;3552;42.664;23.406;2022-09-21T10:26:56;49439.22;;;-141.28;100.00
7022;BME280;3552;42.664;23.406;2022-09-21T10:29:31;49466.69;;;-141.28;100.00
7022;BME280;3552;42.664;23.406;2022-09-21T10:32:01;49380.34;;;-141.28;100.00
7022;BME280;3552;42.664;23.406;2022-09-21T10:34:34;49447.06;;;-141.28;100.00
7022;BME280;3552;42.664;23.406;2022-09-21T10:37:26;49345.03;;;-141.28;100.00
7022;BME280;3552;42.664;23.406;2022-09-21T10:39:54;49295.97;;;-141.28;100.00
7022;BME280;3552;42.664;23.406;2022-09-21T10:42:24;49258.69;;;-141.28;100.00
7022;BME280;3552;42.664;23.406;2022-09-21T10:45:12;49235.16;;;-141.28;100.00
7022;BME280;3552;42.664;23.406;2022-09-21T10:47:43;49266.56;;;-141.28;100.00
7022;BME280;3552;42.664;23.406;2022-09-21T10:50:23;49288.13;;;-141.28;100.00
7022;BME280;3552;42.664;23.406;2022-09-21T10:52:56;49250.84;;;-141.28;100.00
7022;BME280;3552;42.664;23.406;2022-09-21T10:55:25;49203.75;;;-141.28;100.00
7022;BME280;3552;42.664;23.406;2022-09-21T10:57:55;49309.72;;;-141.28;100.00
7022;BME280;3552;42.664;23.406;2022-09-21T11:00:32;49721.81;;;-141.28;100.00
7022;BME280;3552;42.664;23.406;2022-09-21T11:03:29;49341.13;;;-141.28;100.00
7022;BME280;3552;42.664;23.406;2022-09-21T11:06:02;49297.94;;;-141.28;100.00
7022;BME280;3552;42.664;23.406;2022-09-21T11:08:34;49301.88;;;-141.28;100.00
7022;BME280;3552;42.664;23.406;2022-09-21T11:11:19;49254.78;;;-141.28;100.00
7022;BME280;3552;42.664;23.406;2022-09-21T11:13:58;49341.13;;;-141.28;100.00
7022;BME280;3552;42.664;23.406;2022-09-21T11:16:32;49352.88;;;-141.28;100.00
7022;BME280;3552;42.664;23.406;2022-09-21T11:19:09;49329.34;;;-141.28;100.00
7022;BME280;3552;42.664;23.406;2022-09-21T11:21:46;49337.19;;;-141.28;100.00
7022;BME280;3552;42.664;23.406;2022-09-21T11:24:21;49299.91;;;-141.28;100.00
7022;BME280;3552;42.664;23.406;2022-09-21T11:26:54;49266.56;;;-141.28;100.00
7022;BME280;3552;42.664;23.406;2022-09-21T11:29:28;49270.47;;;-141.28;93.79
7022;BME280;3552;42.664;23.406;2022-09-21T11:32:12;49270.47;;;-141.28;91.77
7022;BME280;3552;42.664;23.406;2022-09-21T11:34:54;49301.88;;;-141.28;86.47
7022;BME280;3552;42.664;23.406;2022-09-21T11:37:39;49305.78;;;-141.28;81.39
7022;BME280;3552;42.664;23.406;2022-09-21T11:40:21;49321.50;;;-141.28;86.64
7022;BME280;3552;42.664;23.406;2022-09-21T11:43:07;49305.78;;;-141.28;82.18
7022;BME280;3552;42.664;23.406;2022-09-21T11:45:53;49337.19;;;-141.28;86.12
7022;BME280;3552;42.664;23.406;2022-09-21T11:48:33;49343.06;;;-141.28;100.00
7022;BME280;3552;42.664;23.406;2022-09-21T11:51:15;49299.91;;;-141.28;100.00
7022;BME280;3552;42.664;23.406;2022-09-21T11:54:04;49329.34;;;-141.28;100.00
7022;BME280;3552;42.664;23.406;2022-09-21T11:56:38;49337.19;;;-141.28;100.00
7022;BME280;3552;42.664;23.406;2022-09-21T11:59:23;49443.16;;;-141.28;100.00
7022;BME280;3552;42.664;23.406;2022-09-21T12:02:17;49560.88;;;-141.28;100.00
7022;BME280;3552;42.664;23.406;2022-09-21T12:04:52;49564.81;;;-141.28;100.00
7022;BME280;3552;42.664;23.406;2022-09-21T12:07:37;49572.66;;;-141.28;100.00
7022;BME280;3552;42.664;23.406;2022-09-21T12:10:16;49564.81;;;-141.28;100.00
7022;BME280;3552;42.664;23.406;2022-09-21T12:12:49;49380.34;;;-141.28;100.00
7022;BME280;3552;42.664;23.406;2022-09-21T12:15:24;49384.28;;;-141.28;100.00
7022;BME280;3552;42.664;23.406;2022-09-21T12:18:04;49360.75;;;-141.28;100.00
7022;BME280;3552;42.664;23.406;2022-09-21T12:20:39;49511.84;;;-141.28;100.00
7022;BME280;3552;42.664;23.406;2022-09-21T12:23:12;49437.25;;;-141.28;100.00
7022;BME280;3552;42.664;23.406;2022-09-21T12:25:47;49451.00;;;-141.28;100.00
7022;BME280;3552;42.664;23.406;2022-09-21T12:28:19;49443.16;;;-141.28;100.00
7022;BME280;3552;42.664;23.406;2022-09-21T12:30:50;49445.13;;;-141.28;100.00
7022;BME280;3552;42.664;23.406;2022-09-21T12:33:26;49466.69;;;-141.28;100.00
7022;BME280;3552;42.664;23.406;2022-09-21T12:36:01;49490.25;;;-141.28;100.00
7022;BME280;3552;42.664;23.406;2022-09-21T12:38:32;49494.16;;;-141.28;100.00
7022;BME280;3552;42.664;23.406;2022-09-21T12:41:08;49496.13;;;-141.28;100.00
7022;BME280;3552;42.664;23.406;2022-09-21T12:43:42;49456.88;;;-141.28;100.00
7022;BME280;3552;42.664;23.406;2022-09-21T12:46:14;49474.53;;;-141.28;100.00
7022;BME280;3552;42.664;23.406;2022-09-21T12:48:45;49452.97;;;-141.28;100.00
7022;BME280;3552;42.664;23.406;2022-09-21T12:51:18;49407.84;;;-141.28;100.00
7022;BME280;3552;42.664;23.406;2022-09-21T12:53:50;49348.97;;;-141.28;100.00
7022;BME280;3552;42.664;23.406;2022-09-21T12:56:26;49323.44;;;-141.28;100.00
7022;BME280;3552;42.664;23.406;2022-09-21T12:59:05;49317.56;;;-141.28;100.00
7022;BME280;3552;42.664;23.406;2022-09-21T13:01:43;49274.41;;;-141.28;100.00
7022;BME280;3552;42.664;23.406;2022-09-21T13:04:38;49313.66;;;-141.28;100.00
7022;BME280;3552;42.664;23.406;2022-09-21T13:07:50;49241.03;;;-141.28;100.00